createdAt,value
2023-05-05T00:01:06.570Z,66.10
2023-05-05T00:03:53.817Z,66.10
2023-05-05T00:06:41.085Z,66.20
2023-05-05T00:09:30.749Z,66.20
2023-05-05T00:12:17.923Z,66.30
2023-05-05T00:15:05.623Z,66.30
2023-05-05T00:17:53.385Z,66.10
2023-05-05T00:20:40.711Z,66.10
2023-05-05T00:23:28.032Z,65.90
2023-05-05T00:26:15.369Z,65.90
2023-05-05T00:29:02.656Z,66.00
2023-05-05T00:31:52.328Z,65.70
2023-05-05T00:34:39.534Z,65.30
2023-05-05T00:37:27.126Z,65.30
2023-05-05T00:40:14.532Z,65.30
2023-05-05T00:43:01.775Z,65.30
2023-05-05T00:46:14.610Z,65.10
2023-05-05T00:49:02.215Z,65.10
2023-05-05T00:51:49.547Z,65.10
2023-05-05T00:54:37.918Z,65.00
2023-05-05T00:57:26.108Z,64.90
2023-05-05T01:00:13.606Z,65.00
2023-05-05T01:03:00.935Z,65.00
2023-05-05T01:06:15.484Z,65.00
2023-05-05T01:09:11.617Z,65.10
2023-05-05T01:12:20.231Z,65.00
2023-05-05T01:15:26.461Z,64.90
2023-05-05T01:18:47.689Z,64.90
2023-05-05T01:21:46.801Z,65.00
2023-05-05T01:25:25.244Z,65.00
2023-05-05T01:28:23.436Z,65.10
2023-05-05T01:31:53.132Z,65.10
2023-05-05T01:35:00.715Z,65.20
2023-05-05T01:37:59.785Z,65.50
2023-05-05T01:41:11.869Z,65.60
2023-05-05T01:44:01.455Z,65.70
2023-05-05T01:46:50.366Z,65.70
2023-05-05T01:49:39.636Z,66.00
2023-05-05T01:52:28.075Z,66.00
2023-05-05T01:55:18.152Z,66.10
2023-05-05T01:58:07.405Z,66.10
2023-05-05T02:00:57.955Z,66.20
2023-05-05T02:03:47.432Z,66.40
2023-05-05T02:06:36.321Z,66.50
2023-05-05T02:09:26.698Z,66.50
2023-05-05T02:12:14.142Z,66.40
2023-05-05T02:15:02.906Z,66.30
2023-05-05T02:17:54.380Z,66.20
2023-05-05T02:20:41.777Z,66.30
2023-05-05T02:23:30.020Z,66.40
2023-05-05T02:26:19.929Z,66.40
2023-05-05T02:29:16.501Z,66.60
2023-05-05T02:32:11.478Z,66.70
2023-05-05T02:35:02.858Z,66.70
2023-05-05T02:38:02.835Z,66.80
2023-05-05T02:40:52.445Z,66.80
2023-05-05T02:43:42.564Z,66.80
2023-05-05T02:46:29.816Z,66.70
2023-05-05T02:49:17.257Z,66.50
2023-05-05T02:52:05.031Z,66.40
2023-05-05T02:54:52.229Z,66.60
2023-05-05T02:58:02.098Z,66.60
2023-05-05T03:01:32.426Z,67.00
2023-05-05T03:04:29.343Z,67.00
2023-05-05T03:07:25.045Z,67.10
2023-05-05T03:10:27.578Z,67.30
2023-05-05T03:13:18.629Z,67.30
2023-05-05T03:16:08.328Z,67.30
2023-05-05T03:18:58.667Z,67.30
2023-05-05T03:21:45.915Z,67.30
2023-05-05T03:24:33.204Z,67.10
2023-05-05T03:27:20.771Z,67.10
2023-05-05T03:30:08.708Z,67.30
2023-05-05T03:32:56.025Z,67.40
2023-05-05T03:35:43.287Z,67.50
2023-05-05T03:38:30.519Z,67.60
2023-05-05T03:41:17.713Z,67.40
2023-05-05T03:44:05.134Z,67.30
2023-05-05T03:46:52.372Z,67.30
2023-05-05T03:49:39.611Z,67.20
2023-05-05T03:52:26.780Z,67.00
2023-05-05T03:55:14.085Z,67.00
2023-05-05T03:58:01.361Z,67.00
2023-05-05T04:00:48.602Z,67.10
2023-05-05T04:03:35.806Z,67.20
2023-05-05T04:06:23.355Z,67.10
2023-05-05T04:09:12.093Z,67.10
2023-05-05T04:11:59.324Z,67.10
2023-05-05T04:14:46.582Z,67.00
2023-05-05T04:17:33.769Z,66.90
2023-05-05T04:20:21.418Z,67.00
2023-05-05T04:23:08.601Z,66.80
2023-05-05T04:25:55.809Z,66.80
2023-05-05T04:28:43.040Z,67.00
2023-05-05T04:31:31.876Z,67.20
2023-05-05T04:34:19.123Z,67.30
2023-05-05T04:37:06.328Z,67.30
2023-05-05T04:39:53.556Z,67.20
2023-05-05T04:42:40.780Z,67.20
2023-05-05T04:45:28.055Z,67.50
2023-05-05T04:48:15.628Z,67.60
2023-05-05T04:51:06.891Z,67.90
2023-05-05T04:53:54.070Z,68.10
2023-05-05T04:56:41.249Z,68.10
2023-05-05T04:59:28.417Z,68.20
2023-05-05T05:02:15.693Z,68.20
2023-05-05T05:05:03.266Z,68.20
2023-05-05T05:07:50.759Z,68.50
2023-05-05T05:10:37.945Z,68.60
2023-05-05T05:13:25.238Z,68.80
2023-05-05T05:16:12.582Z,68.90
2023-05-05T05:19:01.492Z,69.30
2023-05-05T05:21:49.096Z,68.90
2023-05-05T05:24:36.359Z,69.10
2023-05-05T05:27:23.539Z,69.10
2023-05-05T05:30:11.236Z,69.30
2023-05-05T05:32:58.460Z,69.60
2023-05-05T05:35:45.920Z,69.70
2023-05-05T05:38:33.381Z,69.80
2023-05-05T05:41:21.710Z,70.00
2023-05-05T05:44:08.943Z,70.10
2023-05-05T05:46:56.334Z,70.20
2023-05-05T05:49:43.534Z,70.20
2023-05-05T05:52:31.316Z,70.30
2023-05-05T05:55:18.584Z,70.40
2023-05-05T05:58:06.172Z,70.50
2023-05-05T06:01:00.087Z,70.50
2023-05-05T06:03:47.441Z,70.60
2023-05-05T06:06:49.764Z,70.40
2023-05-05T06:09:37.441Z,70.60
2023-05-05T06:12:24.649Z,70.50
2023-05-05T06:15:11.975Z,70.60
2023-05-05T06:17:59.183Z,70.60
2023-05-05T06:20:50.391Z,70.60
2023-05-05T06:23:37.534Z,70.90
2023-05-05T06:26:24.744Z,70.80
2023-05-05T06:29:12.443Z,70.80
2023-05-05T06:32:01.242Z,70.90
2023-05-05T06:34:48.668Z,70.90
2023-05-05T06:37:35.968Z,71.00
2023-05-05T06:40:23.181Z,71.30
2023-05-05T06:43:10.382Z,71.40
2023-05-05T06:45:57.555Z,71.50
2023-05-05T06:48:44.746Z,71.70
2023-05-05T06:51:32.130Z,71.80
2023-05-05T06:54:19.425Z,71.80
2023-05-05T06:57:06.639Z,71.90
2023-05-05T06:59:54.124Z,71.80
2023-05-05T07:02:41.828Z,71.90
2023-05-05T07:05:29.104Z,71.90
2023-05-05T07:08:16.413Z,71.70
2023-05-05T07:11:03.667Z,71.70
2023-05-05T07:13:51.015Z,71.60
2023-05-05T07:16:38.779Z,71.60
2023-05-05T07:19:26.051Z,71.00
2023-05-05T07:22:13.212Z,70.60
2023-05-05T07:25:00.539Z,70.40
2023-05-05T07:27:47.818Z,70.10
2023-05-05T07:30:35.076Z,69.80
2023-05-05T07:33:22.514Z,69.60
2023-05-05T07:36:09.797Z,69.40
2023-05-05T07:38:57.009Z,69.40
2023-05-05T07:41:44.340Z,69.20
2023-05-05T07:44:31.789Z,69.00
2023-05-05T07:47:19.009Z,68.80
2023-05-05T07:50:07.032Z,68.70
2023-05-05T07:53:02.366Z,68.90
2023-05-05T07:55:57.757Z,69.10
2023-05-05T07:58:44.921Z,69.10
2023-05-05T08:01:32.144Z,69.20
2023-05-05T08:04:19.399Z,69.00
2023-05-05T08:07:08.101Z,68.80
2023-05-05T08:09:55.193Z,68.90
2023-05-05T08:12:42.537Z,68.80
2023-05-05T08:15:29.768Z,68.70
2023-05-05T08:18:16.971Z,68.60
2023-05-05T08:21:11.260Z,68.50
2023-05-05T08:23:58.464Z,68.40
2023-05-05T08:26:45.691Z,68.40
2023-05-05T08:29:32.916Z,68.60
2023-05-05T08:32:20.133Z,68.60
2023-05-05T08:35:08.300Z,68.50
2023-05-05T08:37:58.156Z,68.40
2023-05-05T08:40:46.496Z,68.10
2023-05-05T08:43:34.908Z,67.90
2023-05-05T08:46:23.881Z,67.80
2023-05-05T08:49:16.210Z,68.00
2023-05-05T08:52:08.970Z,68.50
2023-05-05T08:55:04.620Z,69.20
2023-05-05T08:57:54.877Z,70.80
2023-05-05T09:00:44.744Z,71.10
2023-05-05T09:03:32.600Z,71.70
2023-05-05T09:06:23.566Z,72.30
2023-05-05T09:09:11.089Z,72.90
2023-05-05T09:11:59.801Z,73.10
2023-05-05T09:14:47.428Z,73.60
2023-05-05T09:17:34.570Z,73.80
2023-05-05T09:20:22.258Z,74.20
2023-05-05T09:23:10.724Z,74.50
2023-05-05T09:26:06.103Z,74.70
2023-05-05T09:28:53.499Z,75.20
2023-05-05T09:31:40.831Z,75.00
2023-05-05T09:34:28.076Z,74.30
2023-05-05T09:37:30.786Z,74.20
2023-05-05T09:40:19.246Z,74.50
2023-05-05T09:43:07.039Z,74.00
2023-05-05T09:46:07.594Z,73.80
2023-05-05T09:48:54.936Z,72.90
2023-05-05T09:51:42.181Z,72.80
2023-05-05T09:54:30.862Z,72.70
2023-05-05T09:57:29.096Z,72.90
2023-05-05T10:00:16.605Z,72.60
2023-05-05T10:03:04.431Z,72.10
2023-05-05T10:05:56.965Z,71.70
2023-05-05T10:08:44.689Z,71.30
2023-05-05T10:11:33.242Z,71.10
2023-05-05T10:14:20.943Z,70.90
2023-05-05T10:17:10.140Z,70.60
2023-05-05T10:19:59.907Z,70.60
2023-05-05T10:22:54.646Z,70.40
2023-05-05T10:25:53.820Z,70.10
2023-05-05T10:28:55.131Z,69.90
2023-05-05T10:31:50.093Z,69.80
2023-05-05T10:34:46.261Z,70.00
2023-05-05T10:37:33.716Z,69.80
2023-05-05T10:40:22.638Z,69.20
2023-05-05T10:43:10.669Z,69.40
2023-05-05T10:45:59.249Z,69.10
2023-05-05T10:49:13.073Z,69.30
2023-05-05T10:52:32.880Z,68.90
2023-05-05T10:55:34.966Z,66.90
2023-05-05T10:58:38.512Z,66.90
2023-05-05T11:01:36.417Z,65.60
2023-05-05T11:04:24.408Z,65.40
2023-05-05T11:07:14.677Z,66.20
2023-05-05T11:10:04.419Z,66.20
2023-05-05T11:13:02.552Z,66.60
2023-05-05T11:15:52.028Z,66.50
2023-05-05T11:18:46.065Z,66.50
2023-05-05T11:22:00.111Z,66.80
2023-05-05T11:24:47.908Z,67.10
2023-05-05T11:28:17.235Z,67.60
2023-05-05T11:31:04.441Z,67.50
2023-05-05T11:33:51.636Z,67.40
2023-05-05T11:36:40.844Z,67.50
2023-05-05T11:39:57.210Z,67.80
2023-05-05T11:42:44.449Z,67.70
2023-05-05T11:45:31.850Z,67.40
2023-05-05T11:48:28.197Z,67.70
2023-05-05T11:51:16.962Z,67.40
2023-05-05T11:54:04.740Z,67.50
2023-05-05T11:56:57.452Z,67.40
2023-05-05T11:59:54.860Z,67.10
2023-05-05T12:02:42.154Z,66.90
2023-05-05T12:05:29.457Z,66.50
2023-05-05T12:08:16.695Z,66.50
2023-05-05T12:11:08.183Z,66.60
2023-05-05T12:14:11.550Z,66.50
2023-05-05T12:17:08.737Z,66.30
2023-05-05T12:19:56.056Z,66.00
2023-05-05T12:22:43.874Z,65.60
2023-05-05T12:25:39.070Z,65.50
2023-05-05T12:28:42.510Z,65.20
2023-05-05T12:31:48.114Z,65.10
2023-05-05T12:34:35.905Z,64.40
2023-05-05T12:37:25.056Z,64.50
2023-05-05T12:40:51.875Z,63.70
2023-05-05T12:43:39.063Z,63.90
2023-05-05T12:46:26.931Z,62.80
2023-05-05T12:49:14.398Z,62.50
2023-05-05T12:52:01.721Z,62.80
2023-05-05T12:54:56.735Z,62.80
2023-05-05T12:58:04.619Z,62.60
2023-05-05T13:01:10.804Z,62.80
2023-05-05T13:04:10.858Z,61.70
2023-05-05T13:07:14.938Z,62.20
2023-05-05T13:10:12.540Z,63.50
2023-05-05T13:12:59.898Z,64.30
2023-05-05T13:15:47.121Z,63.80
2023-05-05T13:18:44.883Z,63.30
2023-05-05T13:21:32.209Z,63.10
2023-05-05T13:24:31.133Z,63.10
2023-05-05T13:27:25.633Z,62.40
2023-05-05T13:30:13.413Z,62.30
2023-05-05T13:33:00.628Z,62.10
2023-05-05T13:35:47.872Z,61.80
2023-05-05T13:38:36.521Z,61.30
2023-05-05T13:41:23.754Z,61.20
2023-05-05T13:44:11.007Z,61.80
2023-05-05T13:46:58.378Z,61.10
2023-05-05T13:49:45.696Z,60.40
2023-05-05T13:52:33.462Z,60.00
2023-05-05T13:55:21.143Z,60.60
2023-05-05T13:58:08.382Z,59.90
2023-05-05T14:00:56.278Z,59.90
2023-05-05T14:03:43.506Z,59.40
2023-05-05T14:06:30.741Z,59.20
2023-05-05T14:09:17.937Z,59.60
2023-05-05T14:12:06.222Z,59.30
2023-05-05T14:14:53.418Z,59.10
2023-05-05T14:17:41.201Z,58.20
2023-05-05T14:20:28.602Z,58.70
2023-05-05T14:23:15.907Z,58.50
2023-05-05T14:26:03.167Z,58.50
2023-05-05T14:28:50.376Z,58.30
2023-05-05T14:31:37.626Z,58.80
2023-05-05T14:34:24.944Z,58.80
2023-05-05T14:37:12.202Z,59.20
2023-05-05T14:39:59.463Z,59.00
2023-05-05T14:42:46.765Z,58.60
2023-05-05T14:45:34.184Z,58.70
2023-05-05T14:48:22.469Z,58.50
2023-05-05T14:51:09.942Z,58.60
2023-05-05T14:53:57.114Z,57.90
2023-05-05T14:56:44.374Z,57.50
2023-05-05T14:59:31.610Z,57.70
2023-05-05T15:02:19.230Z,57.70
2023-05-05T15:05:07.395Z,57.40
2023-05-05T15:07:54.957Z,57.70
2023-05-05T15:10:42.276Z,57.30
2023-05-05T15:13:29.780Z,56.50
2023-05-05T15:16:17.115Z,57.00
2023-05-05T15:19:04.431Z,55.90
2023-05-05T15:21:54.120Z,56.10
2023-05-05T15:24:41.450Z,56.10
2023-05-05T15:27:30.027Z,56.00
2023-05-05T15:30:17.304Z,55.50
2023-05-05T15:33:04.632Z,54.60
2023-05-05T15:35:51.955Z,53.90
2023-05-05T15:38:44.788Z,53.10
2023-05-05T15:41:34.300Z,53.70
2023-05-05T15:44:21.577Z,53.30
2023-05-05T15:47:11.028Z,53.50
2023-05-05T15:49:58.299Z,54.10
2023-05-05T15:52:47.184Z,54.40
2023-05-05T15:55:35.990Z,54.40
2023-05-05T15:58:23.332Z,54.50
2023-05-05T16:01:10.583Z,54.40
2023-05-05T16:03:57.963Z,54.40
2023-05-05T16:06:45.160Z,54.50
2023-05-05T16:09:32.381Z,54.00
2023-05-05T16:12:20.922Z,52.60
2023-05-05T16:15:08.877Z,52.00
2023-05-05T16:17:56.309Z,51.60
2023-05-05T16:20:43.574Z,51.80
2023-05-05T16:23:30.999Z,52.30
2023-05-05T16:26:18.477Z,53.00
2023-05-05T16:29:05.743Z,53.50
2023-05-05T16:31:52.983Z,54.10
2023-05-05T16:34:40.141Z,54.20
2023-05-05T16:37:27.423Z,54.70
2023-05-05T16:40:14.738Z,55.10
2023-05-05T16:43:02.007Z,55.20
2023-05-05T16:45:49.296Z,54.70
2023-05-05T16:48:36.620Z,56.00
2023-05-05T16:51:23.872Z,56.40
2023-05-05T16:54:11.068Z,55.70
2023-05-05T16:56:58.269Z,55.40
2023-05-05T16:59:45.510Z,55.50
2023-05-05T17:02:32.997Z,55.60
2023-05-05T17:05:20.416Z,55.50
2023-05-05T17:08:07.842Z,56.00
2023-05-05T17:10:55.236Z,56.40
2023-05-05T17:13:42.526Z,56.20
2023-05-05T17:16:29.964Z,56.60
2023-05-05T17:19:17.234Z,56.40
2023-05-05T17:22:04.526Z,56.60
2023-05-05T17:24:51.982Z,57.00
2023-05-05T17:27:39.326Z,56.50
2023-05-05T17:30:27.757Z,56.60
2023-05-05T17:33:16.842Z,56.20
2023-05-05T17:36:04.253Z,55.50
2023-05-05T17:38:51.459Z,53.60
2023-05-05T17:41:38.790Z,52.80
2023-05-05T17:44:26.021Z,52.80
2023-05-05T17:47:13.317Z,52.70
2023-05-05T17:50:00.775Z,53.40
2023-05-05T17:52:47.966Z,54.10
2023-05-05T17:55:35.118Z,54.20
2023-05-05T17:58:22.322Z,53.70
2023-05-05T18:01:13.548Z,52.60
2023-05-05T18:04:00.879Z,51.30
2023-05-05T18:06:48.213Z,50.70
2023-05-05T18:09:36.183Z,51.30
2023-05-05T18:12:23.339Z,52.00
2023-05-05T18:15:11.294Z,52.90
2023-05-05T18:17:58.692Z,53.80
2023-05-05T18:20:45.911Z,54.70
2023-05-05T18:23:33.137Z,54.90
2023-05-05T18:26:20.350Z,54.90
2023-05-05T18:29:07.731Z,55.50
2023-05-05T18:31:55.150Z,56.10
2023-05-05T18:34:42.497Z,56.40
2023-05-05T18:37:29.658Z,56.60
2023-05-05T18:40:17.016Z,57.20
2023-05-05T18:43:04.257Z,57.30
2023-05-05T18:45:51.786Z,58.00
2023-05-05T18:48:39.080Z,58.60
2023-05-05T18:51:26.505Z,58.60
2023-05-05T18:54:13.755Z,58.80
2023-05-05T18:57:01.208Z,59.00
2023-05-05T18:59:48.403Z,59.20
2023-05-05T19:02:35.626Z,59.30
2023-05-05T19:05:23.310Z,59.40
2023-05-05T19:08:10.781Z,59.70
2023-05-05T19:10:58.100Z,59.90
2023-05-05T19:13:45.524Z,60.00
2023-05-05T19:16:32.920Z,60.10
2023-05-05T19:19:20.133Z,60.10
2023-05-05T19:22:07.410Z,60.20
2023-05-05T19:24:54.729Z,60.00
2023-05-05T19:27:41.994Z,59.90
2023-05-05T19:30:29.199Z,60.00
2023-05-05T19:33:16.677Z,60.20
2023-05-05T19:36:04.078Z,60.30
2023-05-05T19:38:51.613Z,60.30
2023-05-05T19:41:38.905Z,60.30
2023-05-05T19:44:26.135Z,60.30
2023-05-05T19:47:13.357Z,60.40
2023-05-05T19:50:00.616Z,60.40
2023-05-05T19:52:47.851Z,60.40
2023-05-05T19:55:35.692Z,60.60
2023-05-05T19:58:22.974Z,60.30
2023-05-05T20:01:10.240Z,60.20
2023-05-05T20:03:57.751Z,60.20
2023-05-05T20:06:45.294Z,60.10
2023-05-05T20:09:32.505Z,60.30
2023-05-05T20:12:21.992Z,60.20
2023-05-05T20:15:10.568Z,60.60
2023-05-05T20:17:57.987Z,60.80
2023-05-05T20:20:45.357Z,60.80
2023-05-05T20:23:32.638Z,60.70
2023-05-05T20:26:20.112Z,60.70
2023-05-05T20:29:07.323Z,60.80
2023-05-05T20:31:54.694Z,61.60
2023-05-05T20:34:41.951Z,60.80
2023-05-05T20:37:29.189Z,60.70
2023-05-05T20:40:16.413Z,61.00
2023-05-05T20:43:03.743Z,61.10
2023-05-05T20:45:51.671Z,61.10
2023-05-05T20:48:42.275Z,61.20
2023-05-05T20:51:34.171Z,61.50
2023-05-05T20:54:21.472Z,61.40
2023-05-05T20:57:08.761Z,61.60
2023-05-05T20:59:55.973Z,61.80
2023-05-05T21:02:43.397Z,62.40
2023-05-05T21:05:31.782Z,61.80
2023-05-05T21:08:18.933Z,62.00
2023-05-05T21:11:09.969Z,62.10
2023-05-05T21:13:57.346Z,63.00
2023-05-05T21:16:44.604Z,62.10
2023-05-05T21:19:31.912Z,62.10
2023-05-05T21:22:19.572Z,62.10
2023-05-05T21:25:18.299Z,62.30
2023-05-05T21:28:05.614Z,62.50
2023-05-05T21:33:42.912Z,62.50
2023-05-05T21:36:30.354Z,62.70
2023-05-05T21:39:17.514Z,62.90
2023-05-05T21:42:04.826Z,63.20
2023-05-05T21:44:52.020Z,63.40
2023-05-05T21:47:39.362Z,63.50
2023-05-05T21:50:27.675Z,63.70
2023-05-05T21:53:16.632Z,63.70
2023-05-05T21:56:06.526Z,63.40
2023-05-05T21:58:53.743Z,63.60
2023-05-05T22:01:40.925Z,63.70
2023-05-05T22:04:28.232Z,63.80
2023-05-05T22:07:15.460Z,63.70
2023-05-05T22:10:03.800Z,63.70
2023-05-05T22:12:51.064Z,63.80
2023-05-05T22:15:46.080Z,63.90
2023-05-05T22:18:33.705Z,64.00
2023-05-05T22:21:22.076Z,64.00
2023-05-05T22:24:09.347Z,63.80
2023-05-05T22:26:57.439Z,63.80
2023-05-05T22:29:44.726Z,64.00
2023-05-05T22:32:32.546Z,64.10
2023-05-05T22:35:20.324Z,64.20
2023-05-05T22:38:07.589Z,64.20
2023-05-05T22:40:54.794Z,64.10
2023-05-05T22:43:42.009Z,64.00
2023-05-05T22:46:29.273Z,64.00
2023-05-05T22:49:16.682Z,63.70
2023-05-05T22:52:03.940Z,63.70
2023-05-05T22:54:51.171Z,63.70
2023-05-05T22:57:38.510Z,64.00
2023-05-05T23:00:26.126Z,64.10
2023-05-05T23:03:13.335Z,64.10
2023-05-05T23:06:00.493Z,64.30
2023-05-05T23:08:48.950Z,64.40
2023-05-05T23:11:36.254Z,64.50
2023-05-05T23:14:23.517Z,64.60
2023-05-05T23:17:10.958Z,64.70
2023-05-05T23:19:58.139Z,64.70
2023-05-05T23:22:45.346Z,64.70
2023-05-05T23:25:32.594Z,64.80
2023-05-05T23:28:20.280Z,64.80
2023-05-05T23:31:07.516Z,64.90
2023-05-05T23:33:54.737Z,64.90
2023-05-05T23:36:42.063Z,65.00
2023-05-05T23:39:29.331Z,65.00
2023-05-05T23:42:16.484Z,65.20
2023-05-05T23:45:03.920Z,65.30
2023-05-05T23:47:52.406Z,65.20
2023-05-05T23:50:39.657Z,65.20
2023-05-05T23:53:26.888Z,65.30
2023-05-05T23:56:14.062Z,65.40
2023-05-05T23:59:01.415Z,65.60
